createdAt,value
2023-04-15T00:00:30.403Z,6.10
2023-04-15T00:01:29.796Z,6.16
2023-04-15T00:02:30.945Z,6.07
2023-04-15T00:03:30.379Z,6.16
2023-04-15T00:04:30.538Z,6.01
2023-04-15T00:05:30.546Z,6.13
2023-04-15T00:06:31.400Z,6.14
2023-04-15T00:07:30.939Z,6.18
2023-04-15T00:08:31.104Z,6.11
2023-04-15T00:09:31.856Z,6.28
2023-04-15T00:10:31.376Z,6.11
2023-04-15T00:11:31.557Z,6.19
2023-04-15T00:12:31.788Z,6.14
2023-04-15T00:13:31.941Z,6.35
2023-04-15T00:14:32.900Z,6.21
2023-04-15T00:15:32.309Z,6.22
2023-04-15T00:16:32.481Z,6.16
2023-04-15T00:17:32.962Z,6.11
2023-04-15T00:18:32.888Z,6.01
2023-04-15T00:19:34.362Z,5.98
2023-04-15T00:20:33.244Z,5.91
2023-04-15T00:21:33.406Z,5.96
2023-04-15T00:22:34.361Z,6.01
2023-04-15T00:23:33.781Z,5.96
2023-04-15T00:24:33.940Z,6.10
2023-04-15T00:25:34.101Z,6.10
2023-04-15T00:26:34.254Z,6.04
2023-04-15T00:27:35.362Z,6.21
2023-04-15T00:28:34.629Z,6.26
2023-04-15T00:29:35.300Z,6.19
2023-04-15T00:30:34.979Z,6.07
2023-04-15T00:31:35.138Z,6.09
2023-04-15T00:32:35.939Z,6.14
2023-04-15T00:33:35.519Z,6.09
2023-04-15T00:34:35.614Z,5.92
2023-04-15T00:35:36.405Z,6.01
2023-04-15T00:36:35.957Z,5.93
2023-04-15T00:37:36.865Z,5.93
2023-04-15T00:38:36.420Z,5.93
2023-04-15T00:39:36.619Z,5.88
2023-04-15T00:40:36.812Z,5.89
2023-04-15T00:41:37.011Z,5.86
2023-04-15T00:42:37.183Z,5.85
2023-04-15T00:43:37.392Z,5.92
2023-04-15T00:44:37.561Z,6.00
2023-04-15T00:45:39.367Z,5.86
2023-04-15T00:46:37.894Z,5.91
2023-04-15T00:47:38.928Z,5.86
2023-04-15T00:48:38.229Z,5.88
2023-04-15T00:49:38.422Z,5.89
2023-04-15T00:50:38.651Z,5.78
2023-04-15T00:51:38.809Z,5.82
2023-04-15T00:52:39.415Z,5.66
2023-04-15T00:53:39.234Z,5.66
2023-04-15T00:54:39.416Z,5.55
2023-04-15T00:55:39.613Z,5.52
2023-04-15T00:56:39.767Z,5.38
2023-04-15T00:57:41.370Z,5.40
2023-04-15T00:58:41.893Z,5.38
2023-04-15T00:59:40.881Z,5.30
2023-04-15T01:00:40.414Z,5.37
2023-04-15T01:01:40.616Z,5.23
2023-04-15T01:02:40.810Z,5.22
2023-04-15T01:03:40.997Z,5.12
2023-04-15T01:04:41.970Z,4.99
2023-04-15T01:05:41.420Z,5.05
2023-04-15T01:06:41.913Z,5.07
2023-04-15T01:07:41.559Z,5.01
2023-04-15T01:08:41.759Z,4.88
2023-04-15T01:09:41.914Z,4.88
2023-04-15T01:10:42.082Z,4.92
2023-04-15T01:11:42.250Z,4.95
2023-04-15T01:12:43.428Z,5.01
2023-04-15T01:13:43.440Z,4.95
2023-04-15T01:14:43.414Z,4.99
2023-04-15T01:15:43.885Z,4.99
2023-04-15T01:16:44.906Z,4.99
2023-04-15T01:17:43.318Z,4.94
2023-04-15T01:18:43.518Z,5.01
2023-04-15T01:19:43.697Z,4.88
2023-04-15T01:20:43.868Z,4.88
2023-04-15T01:21:44.062Z,4.83
2023-04-15T01:22:44.255Z,4.73
2023-04-15T01:23:44.413Z,4.79
2023-04-15T01:24:44.602Z,4.73
2023-04-15T01:25:45.409Z,4.79
2023-04-15T01:26:44.914Z,4.83
2023-04-15T01:27:46.874Z,4.83
2023-04-15T01:28:45.233Z,4.77
2023-04-15T01:29:45.410Z,4.70
2023-04-15T01:30:46.419Z,4.77
2023-04-15T01:31:45.758Z,4.77
2023-04-15T01:32:46.914Z,4.67
2023-04-15T01:33:46.881Z,4.64
2023-04-15T01:34:46.875Z,4.62
2023-04-15T01:35:46.510Z,4.67
2023-04-15T01:36:48.878Z,4.61
2023-04-15T01:37:46.875Z,4.62
2023-04-15T01:38:47.055Z,4.64
2023-04-15T01:39:47.875Z,4.54
2023-04-15T01:40:47.424Z,4.59
2023-04-15T01:41:47.623Z,4.57
2023-04-15T01:42:47.807Z,4.37
2023-04-15T01:43:48.427Z,4.26
2023-04-15T01:44:48.918Z,4.28
2023-04-15T01:45:48.362Z,4.33
2023-04-15T01:46:49.510Z,4.24
2023-04-15T01:47:49.454Z,4.14
2023-04-15T01:48:49.882Z,4.14
2023-04-15T01:49:49.020Z,4.12
2023-04-15T01:50:49.905Z,4.22
2023-04-15T01:51:49.421Z,4.10
2023-04-15T01:52:50.417Z,4.10
2023-04-15T01:53:49.833Z,4.10
2023-04-15T01:54:49.996Z,4.15
2023-04-15T01:55:50.176Z,4.06
2023-04-15T01:56:50.884Z,4.03
2023-04-15T01:57:50.531Z,4.07
2023-04-15T01:58:50.939Z,4.01
2023-04-15T01:59:50.848Z,3.97
2023-04-15T02:00:51.972Z,4.08
2023-04-15T02:01:51.260Z,4.03
2023-04-15T02:02:52.530Z,4.00
2023-04-15T02:03:51.706Z,3.96
2023-04-15T02:04:51.798Z,3.90
2023-04-15T02:05:53.879Z,3.98
2023-04-15T02:06:52.554Z,3.92
2023-04-15T02:07:52.524Z,3.88
2023-04-15T02:08:53.379Z,3.96
2023-04-15T02:09:52.754Z,3.98
2023-04-15T02:10:53.927Z,3.97
2023-04-15T02:11:53.174Z,3.82
2023-04-15T02:12:54.885Z,3.85
2023-04-15T02:13:53.528Z,3.83
2023-04-15T02:14:54.433Z,3.82
2023-04-15T02:15:53.847Z,3.86
2023-04-15T02:16:54.024Z,3.89
2023-04-15T02:17:54.826Z,4.00
2023-04-15T02:18:54.359Z,3.85
2023-04-15T02:19:54.568Z,3.96
2023-04-15T02:20:54.720Z,3.92
2023-04-15T02:21:55.335Z,3.92
2023-04-15T02:22:55.888Z,3.80
2023-04-15T02:23:55.140Z,3.90
2023-04-15T02:24:55.302Z,3.78
2023-04-15T02:25:56.392Z,3.75
2023-04-15T02:26:55.678Z,3.88
2023-04-15T02:27:56.758Z,3.78
2023-04-15T02:28:56.048Z,3.68
2023-04-15T02:29:56.227Z,3.65
2023-04-15T02:30:56.377Z,3.57
2023-04-15T02:31:56.556Z,3.57
2023-04-15T02:32:57.463Z,3.53
2023-04-15T02:33:56.914Z,3.60
2023-04-15T02:34:57.079Z,3.49
2023-04-15T02:35:57.266Z,3.67
2023-04-15T02:36:57.439Z,3.53
2023-04-15T02:37:58.439Z,3.52
2023-04-15T02:38:57.836Z,3.43
2023-04-15T02:39:58.001Z,3.49
2023-04-15T02:40:58.187Z,3.47
2023-04-15T02:41:58.367Z,3.50
2023-04-15T02:42:58.573Z,3.58
2023-04-15T02:43:59.892Z,3.50
2023-04-15T02:45:00.391Z,3.42
2023-04-15T02:46:00.438Z,3.46
2023-04-15T02:46:59.941Z,3.25
2023-04-15T02:47:59.505Z,3.40
2023-04-15T02:49:00.051Z,3.31
2023-04-15T02:49:59.777Z,3.36
2023-04-15T02:50:59.972Z,3.50
2023-04-15T02:52:00.187Z,3.50
2023-04-15T02:53:00.893Z,3.53
2023-04-15T02:54:00.527Z,3.53
2023-04-15T02:55:00.694Z,3.54
2023-04-15T02:56:01.436Z,3.39
2023-04-15T02:57:02.901Z,3.43
2023-04-15T02:58:01.940Z,3.42
2023-04-15T02:59:01.835Z,3.52
2023-04-15T03:00:03.343Z,3.53
2023-04-15T03:01:02.473Z,3.40
2023-04-15T03:02:02.954Z,3.44
2023-04-15T03:03:02.218Z,3.49
2023-04-15T03:04:02.508Z,3.47
2023-04-15T03:05:03.538Z,3.46
2023-04-15T03:06:04.436Z,3.31
2023-04-15T03:07:02.799Z,3.49
2023-04-15T03:08:03.898Z,3.43
2023-04-15T03:09:03.244Z,3.31
2023-04-15T03:10:03.341Z,3.34
2023-04-15T03:11:03.492Z,3.39
2023-04-15T03:12:03.604Z,3.34
2023-04-15T03:13:03.751Z,3.31
2023-04-15T03:14:03.900Z,3.30
2023-04-15T03:15:04.960Z,3.39
2023-04-15T03:16:04.328Z,3.30
2023-04-15T03:17:05.939Z,3.24
2023-04-15T03:18:04.544Z,3.21
2023-04-15T03:19:05.440Z,3.18
2023-04-15T03:20:04.876Z,3.21
2023-04-15T03:21:05.896Z,3.12
2023-04-15T03:22:06.265Z,3.10
2023-04-15T03:23:05.405Z,3.23
2023-04-15T03:24:05.576Z,3.16
2023-04-15T03:25:05.897Z,3.28
2023-04-15T03:26:08.407Z,3.24
2023-04-15T03:27:07.844Z,3.30
2023-04-15T03:28:06.356Z,3.30
2023-04-15T03:29:07.433Z,3.31
2023-04-15T03:30:07.402Z,3.28
2023-04-15T03:31:06.845Z,3.23
2023-04-15T03:32:07.015Z,3.20
2023-04-15T03:33:07.203Z,3.02
2023-04-15T03:34:07.406Z,3.09
2023-04-15T03:35:07.621Z,3.02
2023-04-15T03:36:08.439Z,2.85
2023-04-15T03:37:08.902Z,2.91
2023-04-15T03:38:08.213Z,2.85
2023-04-15T03:39:08.374Z,2.87
2023-04-15T03:40:10.354Z,2.97
2023-04-15T03:41:09.399Z,3.00
2023-04-15T03:42:09.439Z,2.95
2023-04-15T03:43:09.109Z,2.91
2023-04-15T03:44:09.282Z,2.95
2023-04-15T03:45:09.492Z,2.94
2023-04-15T03:46:09.683Z,2.95
2023-04-15T03:47:09.861Z,3.00
2023-04-15T03:48:16.541Z,3.09
2023-04-15T03:49:12.155Z,3.06
2023-04-15T03:50:10.277Z,3.16
2023-04-15T03:51:10.441Z,3.21
2023-04-15T03:52:10.620Z,3.09
2023-04-15T03:53:11.434Z,3.10
2023-04-15T03:54:10.968Z,3.13
2023-04-15T03:55:11.901Z,3.16
2023-04-15T03:56:32.957Z,3.15
2023-04-15T03:57:11.437Z,3.15
2023-04-15T03:58:12.989Z,3.10
2023-04-15T03:59:11.807Z,3.16
2023-04-15T04:00:13.419Z,3.12
2023-04-15T04:01:13.414Z,3.13
2023-04-15T04:02:12.390Z,3.09
2023-04-15T04:03:12.607Z,3.05
2023-04-15T04:04:12.905Z,2.97
2023-04-15T04:05:13.830Z,3.03
2023-04-15T04:06:13.909Z,3.10
2023-04-15T04:07:13.471Z,3.05
2023-04-15T04:08:14.033Z,3.20
2023-04-15T04:09:13.590Z,3.20
2023-04-15T04:10:16.274Z,3.20
2023-04-15T04:11:15.927Z,3.09
2023-04-15T04:12:14.174Z,3.20
2023-04-15T04:13:14.330Z,3.23
2023-04-15T04:14:14.473Z,3.24
2023-04-15T04:15:16.420Z,3.34
2023-04-15T04:16:16.004Z,3.39
2023-04-15T04:17:14.975Z,3.40
2023-04-15T04:18:15.140Z,3.31
2023-04-15T04:19:15.298Z,3.33
2023-04-15T04:20:15.953Z,3.34
2023-04-15T04:21:15.603Z,3.30
2023-04-15T04:22:16.447Z,3.30
2023-04-15T04:23:16.911Z,3.36
2023-04-15T04:24:17.404Z,3.27
2023-04-15T04:25:17.957Z,3.34
2023-04-15T04:26:16.579Z,3.25
2023-04-15T04:27:17.408Z,3.27
2023-04-15T04:28:16.930Z,3.25
2023-04-15T04:29:17.953Z,3.18
2023-04-15T04:30:17.953Z,3.30
2023-04-15T04:31:17.953Z,3.28
2023-04-15T04:32:19.421Z,3.20
2023-04-15T04:33:18.418Z,3.20
2023-04-15T04:34:18.463Z,3.27
2023-04-15T04:35:19.916Z,3.20
2023-04-15T04:36:18.957Z,3.10
2023-04-15T04:37:19.471Z,3.24
2023-04-15T04:38:18.961Z,3.20
2023-04-15T04:39:18.868Z,3.21
2023-04-15T04:40:19.955Z,3.30
2023-04-15T04:41:19.234Z,3.28
2023-04-15T04:42:19.908Z,3.28
2023-04-15T04:43:20.917Z,3.33
2023-04-15T04:44:19.819Z,3.33
2023-04-15T04:45:19.980Z,3.27
2023-04-15T04:46:20.171Z,3.33
2023-04-15T04:47:20.373Z,3.28
2023-04-15T04:48:21.446Z,3.33
2023-04-15T04:49:20.803Z,3.31
2023-04-15T04:50:21.910Z,3.39
2023-04-15T04:51:21.928Z,3.28
2023-04-15T04:52:21.985Z,3.40
2023-04-15T04:53:22.483Z,3.31
2023-04-15T04:54:22.410Z,3.31
2023-04-15T04:55:21.770Z,3.44
2023-04-15T04:56:21.893Z,3.31
2023-04-15T04:57:22.034Z,3.39
2023-04-15T04:58:23.927Z,3.39
2023-04-15T04:59:22.426Z,3.42
2023-04-15T05:00:23.484Z,3.52
2023-04-15T05:01:23.491Z,3.30
2023-04-15T05:02:23.043Z,3.50
2023-04-15T05:03:24.132Z,3.53
2023-04-15T05:04:23.309Z,3.53
2023-04-15T05:05:23.473Z,3.52
2023-04-15T05:06:23.976Z,3.50
2023-04-15T05:07:23.775Z,3.64
2023-04-15T05:08:25.417Z,3.70
2023-04-15T05:09:24.177Z,3.70
2023-04-15T05:10:24.920Z,3.67
2023-04-15T05:11:26.426Z,3.71
2023-04-15T05:12:24.797Z,3.80
2023-04-15T05:13:26.429Z,3.78
2023-04-15T05:14:25.212Z,3.76
2023-04-15T05:15:25.403Z,3.78
2023-04-15T05:16:26.459Z,3.78
2023-04-15T05:17:26.041Z,3.88
2023-04-15T05:18:26.467Z,3.82
2023-04-15T05:19:26.919Z,3.86
2023-04-15T05:20:26.178Z,3.94
2023-04-15T05:21:26.343Z,3.94
2023-04-15T05:22:26.554Z,4.00
2023-04-15T05:23:27.432Z,3.85
2023-04-15T05:24:26.939Z,4.04
2023-04-15T05:25:27.928Z,4.00
2023-04-15T05:26:28.954Z,4.14
2023-04-15T05:27:27.983Z,4.08
2023-04-15T05:28:27.664Z,4.14
2023-04-15T05:29:27.874Z,4.08
2023-04-15T05:30:28.031Z,4.19
2023-04-15T05:31:28.245Z,4.18
2023-04-15T05:32:28.400Z,4.15
2023-04-15T05:33:28.479Z,4.14
2023-04-15T05:34:28.637Z,4.15
2023-04-15T05:35:28.801Z,4.07
2023-04-15T05:36:28.979Z,4.12
2023-04-15T05:37:30.917Z,4.10
2023-04-15T05:38:29.425Z,4.10
2023-04-15T05:39:30.427Z,4.15
2023-04-15T05:40:29.874Z,4.22
2023-04-15T05:41:30.976Z,4.32
2023-04-15T05:42:31.939Z,4.29
2023-04-15T05:43:31.020Z,4.34
2023-04-15T05:44:30.537Z,4.50
2023-04-15T05:45:31.423Z,4.52
2023-04-15T05:46:30.865Z,4.52
2023-04-15T05:47:30.971Z,4.62
2023-04-15T05:48:31.797Z,4.77
2023-04-15T05:49:31.181Z,4.69
2023-04-15T05:50:31.481Z,4.84
2023-04-15T05:51:31.547Z,4.86
2023-04-15T05:52:31.726Z,4.95
2023-04-15T05:53:33.470Z,4.95
2023-04-15T05:54:32.116Z,5.02
2023-04-15T05:55:32.322Z,4.99
2023-04-15T05:56:32.513Z,5.10
2023-04-15T05:57:32.692Z,5.02
2023-04-15T05:58:33.470Z,5.10
2023-04-15T05:59:33.488Z,5.14
2023-04-15T06:00:33.255Z,5.12
2023-04-15T06:01:34.000Z,5.22
2023-04-15T06:02:34.594Z,5.23
2023-04-15T06:03:34.551Z,5.27
2023-04-15T06:04:34.639Z,5.30
2023-04-15T06:05:34.166Z,5.27
2023-04-15T06:06:35.291Z,5.40
2023-04-15T06:07:35.432Z,5.45
2023-04-15T06:08:36.432Z,5.52
2023-04-15T06:09:34.913Z,5.60
2023-04-15T06:10:35.174Z,5.73
2023-04-15T06:11:35.338Z,5.73
2023-04-15T06:12:35.517Z,5.71
2023-04-15T06:13:35.686Z,5.81
2023-04-15T06:14:35.887Z,5.83
2023-04-15T06:15:36.981Z,5.93
2023-04-15T06:16:36.374Z,6.00
2023-04-15T06:17:36.528Z,6.06
2023-04-15T06:18:36.676Z,6.06
2023-04-15T06:19:38.148Z,6.10
2023-04-15T06:20:39.034Z,6.19
2023-04-15T06:21:37.273Z,6.32
2023-04-15T06:22:37.416Z,6.38
2023-04-15T06:23:37.551Z,6.46
2023-04-15T06:24:37.740Z,6.54
2023-04-15T06:25:37.900Z,6.61
2023-04-15T06:26:39.435Z,6.65
2023-04-15T06:27:38.206Z,6.69
2023-04-15T06:28:38.407Z,6.79
2023-04-15T06:29:38.592Z,6.72
2023-04-15T06:30:38.755Z,6.68
2023-04-15T06:31:40.024Z,6.61
2023-04-15T06:32:39.956Z,6.69
2023-04-15T06:33:39.269Z,6.59
2023-04-15T06:34:39.979Z,6.66
2023-04-15T06:35:40.494Z,6.66
2023-04-15T06:36:40.427Z,6.77
2023-04-15T06:37:40.018Z,6.79
2023-04-15T06:38:40.202Z,6.80
2023-04-15T06:39:40.972Z,6.90
2023-04-15T06:40:41.501Z,6.89
2023-04-15T06:41:41.446Z,7.02
2023-04-15T06:42:40.985Z,7.12
2023-04-15T06:43:41.145Z,6.98
2023-04-15T06:44:42.926Z,7.09
2023-04-15T06:45:41.615Z,6.95
2023-04-15T06:46:41.802Z,7.05
2023-04-15T06:47:42.033Z,7.09
2023-04-15T06:48:42.136Z,6.99
2023-04-15T06:49:42.973Z,7.04
2023-04-15T06:50:42.501Z,7.15
2023-04-15T06:51:42.682Z,7.13
2023-04-15T06:52:44.425Z,7.12
2023-04-15T06:53:44.079Z,6.97
2023-04-15T06:54:43.941Z,6.86
2023-04-15T06:55:44.803Z,6.90
2023-04-15T06:56:44.444Z,6.91
2023-04-15T06:57:44.497Z,6.84
2023-04-15T06:58:43.869Z,6.97
2023-04-15T06:59:44.038Z,7.01
2023-04-15T07:00:44.216Z,6.99
2023-04-15T07:01:44.423Z,6.94
2023-04-15T07:02:44.789Z,6.94
2023-04-15T07:03:45.490Z,6.91
2023-04-15T07:04:44.968Z,6.95
2023-04-15T07:05:46.935Z,6.89
2023-04-15T07:06:45.292Z,6.98
2023-04-15T07:07:46.402Z,6.95
2023-04-15T07:08:46.629Z,6.99
2023-04-15T07:09:45.738Z,7.01
2023-04-15T07:10:45.898Z,7.15
2023-04-15T07:11:47.936Z,7.12
2023-04-15T07:12:46.991Z,7.22
2023-04-15T07:13:46.525Z,7.27
2023-04-15T07:14:47.481Z,7.32
2023-04-15T07:15:47.934Z,7.32
2023-04-15T07:16:48.022Z,7.32
2023-04-15T07:17:47.374Z,7.29
2023-04-15T07:18:47.537Z,7.32
2023-04-15T07:19:48.481Z,7.47
2023-04-15T07:20:49.433Z,7.58
2023-04-15T07:21:48.980Z,7.56
2023-04-15T07:22:48.252Z,7.62
2023-04-15T07:23:48.980Z,7.74
2023-04-15T07:24:49.483Z,7.77
2023-04-15T07:25:49.494Z,7.77
2023-04-15T07:26:48.901Z,7.77
2023-04-15T07:27:49.498Z,7.79
2023-04-15T07:28:49.312Z,7.82
2023-04-15T07:29:50.443Z,7.92
2023-04-15T07:30:50.507Z,8.03
2023-04-15T07:31:50.447Z,7.92
2023-04-15T07:32:50.010Z,7.94
2023-04-15T07:33:50.942Z,8.00
2023-04-15T07:34:50.996Z,8.11
2023-04-15T07:35:50.529Z,8.10
2023-04-15T07:36:50.722Z,8.25
2023-04-15T07:37:51.443Z,8.35
2023-04-15T07:38:51.113Z,8.44
2023-04-15T07:39:51.274Z,8.48
2023-04-15T07:40:52.018Z,8.50
2023-04-15T07:41:52.495Z,8.42
2023-04-15T07:42:52.536Z,8.44
2023-04-15T07:43:52.519Z,8.44
2023-04-15T07:44:52.195Z,8.39
2023-04-15T07:45:52.414Z,8.42
2023-04-15T07:46:52.498Z,8.86
2023-04-15T07:47:52.711Z,8.86
2023-04-15T07:48:53.008Z,8.68
2023-04-15T07:49:53.498Z,8.54
2023-04-15T07:50:53.546Z,8.62
2023-04-15T07:51:53.370Z,8.62
2023-04-15T07:52:54.453Z,8.75
2023-04-15T07:53:53.733Z,8.88
2023-04-15T07:54:53.900Z,9.21
2023-04-15T07:55:54.142Z,9.13
2023-04-15T07:56:54.214Z,9.23
2023-04-15T07:57:55.961Z,9.20
2023-04-15T07:58:56.456Z,9.16
2023-04-15T07:59:55.455Z,9.27
2023-04-15T08:00:55.004Z,9.18
2023-04-15T08:01:56.016Z,9.31
2023-04-15T08:02:55.416Z,9.23
2023-04-15T08:03:55.903Z,9.32
2023-04-15T08:04:56.522Z,9.40
2023-04-15T08:05:56.017Z,9.40
2023-04-15T08:06:56.129Z,9.16
2023-04-15T08:07:56.304Z,8.99
2023-04-15T08:08:57.590Z,9.04
2023-04-15T08:09:56.714Z,9.13
2023-04-15T08:10:57.498Z,9.25
2023-04-15T08:11:57.041Z,9.21
2023-04-15T08:12:58.459Z,9.24
2023-04-15T08:13:57.963Z,8.99
2023-04-15T08:14:58.496Z,8.50
2023-04-15T08:15:58.532Z,8.20
2023-04-15T08:16:58.989Z,8.03
2023-04-15T08:17:58.967Z,8.04
2023-04-15T08:19:00.197Z,7.90
2023-04-15T08:19:58.330Z,7.93
2023-04-15T08:20:58.494Z,7.92
2023-04-15T08:21:59.327Z,7.82
2023-04-15T08:22:59.467Z,7.97
2023-04-15T08:23:58.980Z,8.14
2023-04-15T08:24:59.134Z,8.26
2023-04-15T08:25:59.285Z,8.33
2023-04-15T08:26:59.444Z,8.26
2023-04-15T08:27:59.618Z,8.26
2023-04-15T08:29:00.037Z,8.32
2023-04-15T08:30:03.425Z,8.37
2023-04-15T08:31:00.215Z,8.55
2023-04-15T08:32:01.042Z,8.88
2023-04-15T08:33:00.652Z,8.96
2023-04-15T08:34:00.744Z,9.10
2023-04-15T08:35:01.470Z,9.12
2023-04-15T08:36:01.996Z,9.30
2023-04-15T08:37:03.329Z,9.31
2023-04-15T08:38:01.568Z,9.45
2023-04-15T08:39:02.720Z,9.49
2023-04-15T08:40:02.460Z,9.35
2023-04-15T08:41:02.964Z,9.32
2023-04-15T08:42:02.993Z,9.39
2023-04-15T08:43:02.388Z,9.34
2023-04-15T08:44:03.514Z,9.52
2023-04-15T08:45:04.473Z,9.53
2023-04-15T08:46:03.970Z,9.66
2023-04-15T08:47:04.934Z,9.40
2023-04-15T08:48:03.629Z,9.38
2023-04-15T08:49:05.050Z,9.48
2023-04-15T08:50:03.735Z,9.58
2023-04-15T08:51:04.535Z,9.49
2023-04-15T08:52:04.061Z,9.39
2023-04-15T08:53:04.257Z,9.38
2023-04-15T08:54:04.431Z,9.15
2023-04-15T08:55:04.622Z,9.05
2023-04-15T08:56:04.799Z,8.96
2023-04-15T08:57:04.989Z,8.90
2023-04-15T08:58:05.160Z,9.05
2023-04-15T08:59:05.334Z,8.96
2023-04-15T09:00:05.909Z,8.93
2023-04-15T09:01:06.562Z,8.90
2023-04-15T09:02:06.555Z,8.94
2023-04-15T09:03:07.020Z,8.84
2023-04-15T09:04:06.357Z,8.88
2023-04-15T09:05:06.536Z,8.93
2023-04-15T09:06:07.645Z,8.88
2023-04-15T09:07:07.511Z,8.83
2023-04-15T09:08:07.526Z,8.86
2023-04-15T09:09:07.215Z,9.01
2023-04-15T09:10:07.380Z,8.97
2023-04-15T09:11:07.514Z,9.01
2023-04-15T09:12:07.675Z,8.87
2023-04-15T09:13:08.555Z,8.76
2023-04-15T09:14:08.057Z,8.65
2023-04-15T09:15:08.237Z,8.55
2023-04-15T09:16:09.889Z,8.68
2023-04-15T09:17:08.650Z,8.60
2023-04-15T09:18:08.838Z,8.48
2023-04-15T09:19:09.014Z,8.55
2023-04-15T09:20:10.984Z,8.55
2023-04-15T09:21:09.393Z,8.63
2023-04-15T09:22:10.543Z,8.76
2023-04-15T09:23:09.808Z,8.57
2023-04-15T09:24:11.476Z,8.63
2023-04-15T09:25:10.235Z,8.69
2023-04-15T09:26:10.436Z,8.68
2023-04-15T09:27:10.593Z,8.62
2023-04-15T09:28:10.742Z,8.63
2023-04-15T09:29:11.040Z,8.68
2023-04-15T09:30:11.546Z,8.68
2023-04-15T09:31:11.225Z,8.71
2023-04-15T09:32:11.449Z,8.76
2023-04-15T09:33:11.613Z,8.79
2023-04-15T09:34:12.478Z,8.71
2023-04-15T09:35:12.010Z,8.88
2023-04-15T09:36:12.173Z,8.86
2023-04-15T09:37:17.733Z,8.84
2023-04-15T09:38:14.471Z,8.86
2023-04-15T09:39:12.717Z,8.81
2023-04-15T09:40:12.899Z,8.87
2023-04-15T09:41:13.090Z,8.83
2023-04-15T09:42:14.020Z,8.83
2023-04-15T09:43:13.416Z,8.81
2023-04-15T09:44:14.481Z,8.79
2023-04-15T09:45:13.719Z,8.87
2023-04-15T09:46:14.537Z,8.93
2023-04-15T09:47:15.989Z,9.01
2023-04-15T09:48:14.931Z,8.87
2023-04-15T09:49:16.042Z,8.83
2023-04-15T09:50:14.661Z,8.84
2023-04-15T09:51:14.844Z,8.83
2023-04-15T09:52:14.993Z,8.73
2023-04-15T09:53:15.132Z,8.76
2023-04-15T09:54:15.262Z,8.66
2023-04-15T09:55:15.990Z,8.76
2023-04-15T09:56:15.670Z,8.84
2023-04-15T09:57:17.350Z,8.73
2023-04-15T09:58:17.020Z,8.76
2023-04-15T09:59:20.015Z,8.90
2023-04-15T10:00:16.466Z,8.93
2023-04-15T10:01:16.651Z,8.94
2023-04-15T10:02:17.601Z,8.87
2023-04-15T10:03:17.129Z,8.86
2023-04-15T10:04:17.239Z,8.84
2023-04-15T10:05:17.550Z,8.96
2023-04-15T10:06:19.000Z,8.91
2023-04-15T10:07:17.742Z,8.84
2023-04-15T10:08:17.897Z,8.81
2023-04-15T10:09:18.026Z,8.68
2023-04-15T10:10:18.223Z,8.72
2023-04-15T10:11:18.386Z,8.62
2023-04-15T10:12:18.556Z,8.54
2023-04-15T10:13:19.548Z,8.51
2023-04-15T10:14:19.515Z,8.58
2023-04-15T10:15:19.186Z,8.50
2023-04-15T10:16:19.953Z,8.57
2023-04-15T10:17:20.057Z,8.40
2023-04-15T10:18:20.356Z,8.50
2023-04-15T10:19:20.525Z,8.57
2023-04-15T10:20:20.040Z,8.47
2023-04-15T10:21:21.039Z,8.30
2023-04-15T10:22:20.419Z,8.44
2023-04-15T10:23:20.581Z,8.28
2023-04-15T10:24:20.739Z,8.37
2023-04-15T10:25:21.546Z,8.44
2023-04-15T10:26:22.061Z,8.47
2023-04-15T10:27:21.190Z,8.47
2023-04-15T10:28:21.341Z,8.55
2023-04-15T10:29:21.608Z,8.51
2023-04-15T10:30:21.760Z,8.50
2023-04-15T10:31:21.997Z,8.53
2023-04-15T10:32:23.046Z,8.58
2023-04-15T10:33:22.272Z,8.45
2023-04-15T10:34:23.858Z,8.48
2023-04-15T10:35:23.558Z,8.54
2023-04-15T10:36:23.559Z,8.51
2023-04-15T10:37:22.993Z,8.47
2023-04-15T10:38:24.064Z,8.45
2023-04-15T10:39:23.396Z,8.55
2023-04-15T10:40:24.553Z,8.32
2023-04-15T10:41:24.360Z,8.32
2023-04-15T10:42:24.044Z,8.26
2023-04-15T10:43:25.029Z,8.26
2023-04-15T10:44:25.426Z,8.29
2023-04-15T10:45:24.588Z,8.35
2023-04-15T10:46:24.827Z,8.32
2023-04-15T10:47:26.073Z,8.37
2023-04-15T10:48:26.038Z,8.30
2023-04-15T10:49:26.036Z,8.28
2023-04-15T10:50:25.565Z,8.30
2023-04-15T10:51:25.783Z,8.26
2023-04-15T10:52:26.539Z,8.22
2023-04-15T10:53:26.546Z,8.36
2023-04-15T10:54:26.347Z,8.29
2023-04-15T10:55:27.034Z,8.22
2023-04-15T10:56:28.444Z,8.26
2023-04-15T10:57:27.510Z,8.26
2023-04-15T10:58:27.555Z,8.29
2023-04-15T10:59:29.206Z,8.20
2023-04-15T11:00:28.047Z,8.18
2023-04-15T11:01:28.624Z,8.18
2023-04-15T11:02:28.690Z,8.10
2023-04-15T11:03:28.138Z,8.15
2023-04-15T11:04:28.375Z,8.14
2023-04-15T11:05:29.036Z,8.11
2023-04-15T11:06:28.687Z,8.14
2023-04-15T11:07:29.553Z,8.14
2023-04-15T11:08:30.005Z,8.15
2023-04-15T11:09:29.254Z,8.15
2023-04-15T11:10:29.468Z,8.26
2023-04-15T11:11:30.560Z,8.10
2023-04-15T11:12:31.509Z,8.10
2023-04-15T11:13:31.517Z,8.12
2023-04-15T11:14:31.519Z,8.02
2023-04-15T11:15:30.278Z,8.20
2023-04-15T11:16:31.101Z,8.20
2023-04-15T11:17:30.746Z,8.18
2023-04-15T11:18:30.867Z,8.20
2023-04-15T11:19:31.505Z,8.18
2023-04-15T11:20:32.003Z,8.12
2023-04-15T11:21:32.063Z,8.25
2023-04-15T11:22:31.591Z,8.18
2023-04-15T11:23:31.785Z,8.08
2023-04-15T11:24:33.368Z,7.97
2023-04-15T11:25:32.118Z,8.08
2023-04-15T11:26:33.046Z,8.02
2023-04-15T11:27:32.436Z,8.20
2023-04-15T11:28:32.590Z,8.21
2023-04-15T11:29:32.798Z,8.26
2023-04-15T11:30:34.499Z,8.14
2023-04-15T11:31:33.166Z,8.22
2023-04-15T11:32:33.389Z,8.21
2023-04-15T11:33:33.628Z,8.12
2023-04-15T11:34:54.833Z,8.20
2023-04-15T11:35:34.937Z,8.10
2023-04-15T11:36:34.555Z,8.17
2023-04-15T11:37:35.053Z,8.15
2023-04-15T11:38:34.484Z,8.11
2023-04-15T11:39:34.701Z,8.12
2023-04-15T11:40:36.381Z,8.07
2023-04-15T11:41:36.512Z,8.07
2023-04-15T11:42:49.038Z,8.20
2023-04-15T11:43:37.462Z,8.21
2023-04-15T11:44:37.517Z,8.22
2023-04-15T11:45:35.807Z,8.17
2023-04-15T11:46:36.508Z,8.20
2023-04-15T11:47:36.275Z,8.22
2023-04-15T11:48:37.027Z,8.26
2023-04-15T11:49:38.015Z,8.11
2023-04-15T11:50:37.064Z,8.12
2023-04-15T11:51:37.035Z,8.15
2023-04-15T11:52:38.060Z,8.15
2023-04-15T11:53:37.345Z,8.29
2023-04-15T11:54:37.506Z,8.25
2023-04-15T11:55:37.696Z,8.21
2023-04-15T11:56:38.514Z,8.21
2023-04-15T11:57:38.022Z,8.21
2023-04-15T11:58:38.218Z,8.20
2023-04-15T11:59:45.212Z,8.11
2023-04-15T12:00:41.567Z,8.14
2023-04-15T12:01:38.778Z,8.21
2023-04-15T12:02:39.979Z,8.11
2023-04-15T12:03:40.184Z,8.20
2023-04-15T12:04:40.119Z,8.30
2023-04-15T12:05:40.019Z,8.15
2023-04-15T12:06:39.557Z,8.17
2023-04-15T12:07:39.711Z,8.20
2023-04-15T12:08:40.524Z,8.18
2023-04-15T12:09:40.592Z,8.11
2023-04-15T12:10:40.274Z,8.15
2023-04-15T12:11:40.519Z,8.28
2023-04-15T12:12:41.570Z,8.22
2023-04-15T12:13:41.566Z,8.11
2023-04-15T12:14:41.104Z,8.22
2023-04-15T12:15:41.368Z,8.30
2023-04-15T12:16:48.947Z,8.29
2023-04-15T12:17:51.816Z,8.18
2023-04-15T12:18:43.537Z,8.14
2023-04-15T12:19:42.559Z,8.32
2023-04-15T12:20:42.089Z,8.08
2023-04-15T12:21:42.257Z,8.12
2023-04-15T12:22:42.448Z,8.21
2023-04-15T12:23:44.519Z,8.11
2023-04-15T12:24:42.774Z,8.17
2023-04-15T12:25:43.575Z,8.11
2023-04-15T12:26:44.526Z,8.20
2023-04-15T12:27:44.024Z,8.26
2023-04-15T12:28:43.422Z,8.22
2023-04-15T12:29:45.032Z,8.22
2023-04-15T12:30:43.847Z,8.21
2023-04-15T12:31:44.162Z,8.14
2023-04-15T12:32:44.264Z,8.20
2023-04-15T12:33:46.025Z,8.17
2023-04-15T12:34:44.570Z,8.22
2023-04-15T12:35:44.755Z,8.15
2023-04-15T12:36:45.535Z,8.18
2023-04-15T12:37:45.576Z,8.26
2023-04-15T12:38:46.071Z,8.14
2023-04-15T12:39:45.500Z,8.22
2023-04-15T12:40:46.565Z,8.33
2023-04-15T12:41:46.564Z,8.26
2023-04-15T12:42:46.086Z,8.32
2023-04-15T12:43:47.052Z,8.28
2023-04-15T12:44:46.359Z,8.40
2023-04-15T12:45:48.527Z,8.42
2023-04-15T12:46:46.866Z,8.26
2023-04-15T12:47:46.989Z,8.33
2023-04-15T12:48:47.177Z,8.33
2023-04-15T12:49:48.086Z,8.45
2023-04-15T12:50:48.070Z,8.39
2023-04-15T12:51:49.680Z,8.51
2023-04-15T12:52:47.971Z,8.29
2023-04-15T12:53:49.088Z,8.29
2023-04-15T12:54:48.373Z,8.29
2023-04-15T12:55:48.560Z,8.33
2023-04-15T12:56:48.748Z,8.33
2023-04-15T12:57:49.082Z,8.45
2023-04-15T12:58:49.108Z,8.30
2023-04-15T12:59:50.093Z,8.44
2023-04-15T13:00:49.532Z,8.40
2023-04-15T13:01:49.743Z,8.44
2023-04-15T13:02:49.926Z,8.29
2023-04-15T13:03:50.560Z,8.42
2023-04-15T13:04:51.639Z,8.44
2023-04-15T13:05:50.586Z,8.50
2023-04-15T13:06:51.032Z,8.48
2023-04-15T13:07:50.574Z,8.45
2023-04-15T13:08:58.240Z,8.45
2023-04-15T13:09:52.957Z,8.51
2023-04-15T13:10:51.603Z,8.53
2023-04-15T13:11:51.255Z,8.55
2023-04-15T13:12:52.079Z,8.48
2023-04-15T13:13:53.068Z,8.51
2023-04-15T13:14:53.531Z,8.50
2023-04-15T13:15:52.056Z,8.57
2023-04-15T13:16:53.039Z,8.50
2023-04-15T13:17:53.109Z,8.51
2023-04-15T13:18:52.646Z,8.50
2023-04-15T13:19:53.533Z,8.53
2023-04-15T13:20:53.580Z,8.55